createdAt,value
2019-03-15T00:00:00.585Z,4.03
2019-03-15T00:02:33.645Z,3.77
2019-03-15T00:05:06.626Z,3.67
2019-03-15T00:07:41.276Z,3.42
2019-03-15T00:10:14.277Z,3.55
2019-03-15T00:12:47.443Z,4.03
2019-03-15T00:15:20.429Z,3.17
2019-03-15T00:17:54.551Z,3.72
2019-03-15T00:20:27.931Z,3.37
2019-03-15T00:23:01.227Z,3.70
2019-03-15T00:25:34.136Z,3.05
2019-03-15T00:28:07.099Z,3.50
2019-03-15T00:30:40.124Z,4.08
2019-03-15T00:33:13.080Z,3.08
2019-03-15T00:35:46.656Z,3.98
2019-03-15T00:38:20.514Z,3.92
2019-03-15T00:40:53.839Z,6.30
2019-03-15T00:43:26.880Z,3.80
2019-03-15T00:45:59.833Z,3.25
2019-03-15T00:48:33.346Z,3.98
2019-03-15T00:51:07.053Z,3.30
2019-03-15T00:53:40.031Z,3.90
2019-03-15T00:56:13.446Z,4.42
2019-03-15T00:58:46.483Z,3.22
2019-03-15T01:01:20.564Z,3.22
2019-03-15T01:03:53.631Z,3.05
2019-03-15T01:06:26.957Z,2.35
2019-03-15T01:09:00.013Z,3.85
2019-03-15T01:11:33.863Z,3.65
2019-03-15T01:14:07.525Z,3.92
2019-03-15T01:16:40.937Z,3.22
2019-03-15T01:19:14.446Z,3.27
2019-03-15T01:21:47.799Z,3.40
2019-03-15T01:24:21.389Z,3.30
2019-03-15T01:26:55.155Z,3.20
2019-03-15T01:29:28.534Z,3.50
2019-03-15T01:32:01.923Z,3.52
2019-03-15T01:34:35.645Z,3.45
2019-03-15T01:37:09.132Z,3.70
2019-03-15T01:39:42.399Z,3.62
2019-03-15T01:42:14.952Z,3.80
2019-03-15T01:44:48.286Z,3.80
2019-03-15T01:47:21.877Z,4.30
2019-03-15T01:49:54.958Z,4.35
2019-03-15T01:52:27.463Z,3.02
2019-03-15T01:55:01.590Z,3.45
2019-03-15T01:57:34.250Z,4.67
2019-03-15T02:00:08.933Z,4.72
2019-03-15T02:02:41.607Z,4.42
2019-03-15T02:05:14.621Z,4.30
2019-03-15T02:07:47.761Z,3.67
2019-03-15T02:10:22.331Z,4.80
2019-03-15T02:12:56.551Z,4.40
2019-03-15T02:15:29.817Z,2.92
2019-03-15T02:18:04.300Z,4.35
2019-03-15T02:20:39.223Z,3.40
2019-03-15T02:23:12.205Z,3.08
2019-03-15T02:25:45.490Z,3.67
2019-03-15T02:28:18.605Z,4.42
2019-03-15T02:30:51.369Z,3.02
2019-03-15T02:33:24.847Z,2.72
2019-03-15T02:35:58.263Z,3.30
2019-03-15T02:38:31.992Z,3.40
2019-03-15T02:41:05.141Z,4.15
2019-03-15T02:43:38.431Z,3.15
2019-03-15T02:46:11.569Z,3.20
2019-03-15T02:48:46.581Z,4.65
2019-03-15T02:51:19.891Z,4.05
2019-03-15T02:53:52.936Z,3.08
2019-03-15T02:56:26.327Z,3.52
2019-03-15T02:58:59.323Z,3.33
2019-03-15T03:01:33.962Z,5.00
2019-03-15T03:04:09.407Z,2.92
2019-03-15T03:06:44.366Z,4.08
2019-03-15T03:09:17.827Z,3.55
2019-03-15T03:11:50.946Z,3.80
2019-03-15T03:14:24.450Z,3.52
2019-03-15T03:16:58.281Z,3.70
2019-03-15T03:19:32.375Z,3.45
2019-03-15T03:22:05.386Z,2.98
2019-03-15T03:24:38.858Z,3.77
2019-03-15T03:27:11.861Z,2.80
2019-03-15T03:29:46.875Z,2.77
2019-03-15T03:32:20.928Z,3.45
2019-03-15T03:34:53.788Z,4.53
2019-03-15T03:37:27.492Z,2.95
2019-03-15T03:40:02.019Z,3.00
2019-03-15T03:42:37.143Z,2.60
2019-03-15T03:45:10.027Z,4.17
2019-03-15T03:47:43.402Z,3.00
2019-03-15T03:50:16.791Z,3.25
2019-03-15T03:52:49.408Z,3.35
2019-03-15T03:55:22.963Z,2.75
2019-03-15T03:57:56.414Z,2.62
2019-03-15T04:00:30.249Z,4.00
2019-03-15T04:03:03.290Z,3.17
2019-03-15T04:05:36.289Z,3.58
2019-03-15T04:08:10.230Z,3.90
2019-03-15T04:10:43.079Z,3.02
2019-03-15T04:13:15.986Z,3.55
2019-03-15T04:15:49.640Z,3.12
2019-03-15T04:18:24.928Z,4.15
2019-03-15T04:20:58.226Z,2.67
2019-03-15T04:23:31.694Z,3.25
2019-03-15T04:26:05.551Z,2.70
2019-03-15T04:28:38.497Z,2.90
2019-03-15T04:31:11.894Z,3.65
2019-03-15T04:33:46.295Z,3.50
2019-03-15T04:36:20.838Z,4.20
2019-03-15T04:38:56.221Z,2.60
2019-03-15T04:41:29.684Z,3.60
2019-03-15T04:44:04.718Z,4.03
2019-03-15T04:46:40.370Z,3.67
2019-03-15T04:49:14.902Z,3.60
2019-03-15T04:51:47.970Z,3.47
2019-03-15T04:54:21.378Z,3.72
2019-03-15T04:56:55.535Z,3.70
2019-03-15T04:59:29.355Z,4.10
2019-03-15T05:02:02.546Z,4.20
2019-03-15T05:04:36.190Z,5.12
2019-03-15T05:07:09.638Z,3.42
2019-03-15T05:09:42.679Z,3.55
2019-03-15T05:12:16.081Z,3.35
2019-03-15T05:14:49.585Z,3.47
2019-03-15T05:17:22.782Z,3.50
2019-03-15T05:19:55.997Z,4.70
2019-03-15T05:22:29.363Z,3.47
2019-03-15T05:25:03.817Z,3.33
2019-03-15T05:27:36.058Z,3.80
2019-03-15T05:30:11.322Z,4.70
2019-03-15T05:32:45.612Z,3.40
2019-03-15T05:35:20.136Z,3.95
2019-03-15T05:37:52.850Z,2.90
2019-03-15T05:40:26.083Z,2.77
2019-03-15T05:43:01.705Z,5.60
2019-03-15T05:45:35.303Z,2.90
2019-03-15T05:48:08.953Z,2.70
2019-03-15T05:50:41.916Z,3.35
2019-03-15T05:53:16.519Z,3.35
2019-03-15T05:55:50.310Z,2.72
2019-03-15T05:58:24.000Z,3.75
2019-03-15T06:00:57.069Z,3.10
2019-03-15T06:03:32.192Z,4.10
2019-03-15T06:06:04.830Z,3.35
2019-03-15T06:08:38.651Z,2.80
2019-03-15T06:11:12.225Z,3.05
2019-03-15T06:13:45.385Z,3.85
2019-03-15T06:16:19.411Z,2.92
2019-03-15T06:18:53.044Z,2.98
2019-03-15T06:21:26.285Z,4.65
2019-03-15T06:24:01.552Z,4.80
2019-03-15T06:26:36.847Z,3.10
2019-03-15T06:29:10.193Z,3.15
2019-03-15T06:31:45.632Z,3.40
2019-03-15T06:34:18.700Z,3.67
2019-03-15T06:36:52.117Z,3.17
2019-03-15T06:39:25.608Z,3.15
2019-03-15T06:41:58.813Z,3.67
2019-03-15T06:44:32.742Z,4.47
2019-03-15T06:47:06.208Z,3.85
2019-03-15T06:49:38.839Z,3.85
2019-03-15T06:52:12.360Z,4.85
2019-03-15T06:54:44.982Z,5.60
2019-03-15T06:57:19.086Z,5.25
2019-03-15T06:59:52.085Z,7.05
2019-03-15T07:02:26.336Z,5.97
2019-03-15T07:04:59.380Z,6.55
2019-03-15T07:07:32.944Z,5.85
2019-03-15T07:10:06.160Z,6.90
2019-03-15T07:12:40.435Z,6.80
2019-03-15T07:15:14.227Z,8.10
2019-03-15T07:17:47.352Z,8.10
2019-03-15T07:20:20.741Z,8.35
2019-03-15T07:22:54.399Z,7.15
2019-03-15T07:25:28.567Z,8.70
2019-03-15T07:28:01.846Z,8.00
2019-03-15T07:30:34.878Z,8.15
2019-03-15T07:33:07.785Z,8.25
2019-03-15T07:35:40.446Z,8.08
2019-03-15T07:38:13.791Z,8.05
2019-03-15T07:40:47.130Z,8.70
2019-03-15T07:43:20.985Z,8.58
2019-03-15T07:45:54.838Z,9.78
2019-03-15T07:48:28.271Z,8.48
2019-03-15T07:51:01.356Z,9.95
2019-03-15T07:53:35.569Z,9.00
2019-03-15T07:56:08.335Z,7.97
2019-03-15T07:58:42.251Z,9.33
2019-03-15T08:01:16.030Z,8.90
2019-03-15T08:03:49.356Z,8.20
2019-03-15T08:06:34.214Z,8.00
2019-03-15T08:08:57.478Z,8.35
2019-03-15T08:11:30.875Z,8.58
2019-03-15T08:14:04.228Z,8.35
2019-03-15T08:16:38.020Z,9.13
2019-03-15T08:19:11.776Z,9.43
2019-03-15T08:21:45.078Z,8.50
2019-03-15T08:24:18.858Z,10.10
2019-03-15T08:26:52.505Z,9.50
2019-03-15T08:29:26.352Z,9.88
2019-03-15T08:32:00.174Z,9.75
2019-03-15T08:34:34.129Z,9.18
2019-03-15T08:37:07.943Z,10.48
2019-03-15T08:39:41.842Z,9.45
2019-03-15T08:42:15.334Z,9.20
2019-03-15T08:44:50.554Z,8.90
2019-03-15T08:47:24.316Z,10.45
2019-03-15T08:49:56.934Z,10.45
2019-03-15T08:52:29.298Z,10.82
2019-03-15T08:55:05.369Z,11.10
2019-03-15T08:57:38.175Z,13.43
2019-03-15T09:00:11.947Z,12.03
2019-03-15T09:02:46.188Z,14.30
2019-03-15T09:05:20.307Z,13.95
2019-03-15T09:07:54.543Z,12.37
2019-03-15T09:10:28.034Z,14.75
2019-03-15T09:13:01.651Z,13.28
2019-03-15T09:15:35.143Z,14.78
2019-03-15T09:18:08.118Z,14.25
2019-03-15T09:20:43.192Z,15.13
2019-03-15T09:23:16.229Z,17.95
2019-03-15T09:25:51.075Z,15.43
2019-03-15T09:28:25.786Z,15.15
2019-03-15T09:30:59.086Z,17.07
2019-03-15T09:33:32.579Z,17.23
2019-03-15T09:36:05.674Z,15.68
2019-03-15T09:38:38.815Z,17.48
2019-03-15T09:41:13.738Z,16.60
2019-03-15T09:43:47.357Z,16.70
2019-03-15T09:46:20.916Z,17.05
2019-03-15T09:48:58.562Z,15.70
2019-03-15T09:51:31.402Z,15.55
2019-03-15T09:54:04.907Z,14.98
2019-03-15T09:56:38.932Z,13.68
2019-03-15T09:59:19.157Z,14.65
2019-03-15T10:01:48.980Z,13.32
2019-03-15T10:04:22.382Z,13.43
2019-03-15T10:06:55.997Z,12.20
2019-03-15T10:09:28.179Z,13.35
2019-03-15T10:12:02.372Z,14.47
2019-03-15T10:14:35.960Z,15.32
2019-03-15T10:17:09.376Z,13.90
2019-03-15T10:19:42.825Z,12.65
2019-03-15T10:22:17.015Z,15.48
2019-03-15T10:24:50.843Z,12.95
2019-03-15T10:27:24.004Z,14.10
2019-03-15T10:29:57.480Z,13.80
2019-03-15T10:32:30.783Z,12.90
2019-03-15T10:35:08.030Z,13.98
2019-03-15T10:37:41.174Z,14.58
2019-03-15T10:40:17.182Z,14.68
2019-03-15T10:42:50.311Z,16.85
2019-03-15T10:45:24.950Z,15.05
2019-03-15T10:47:59.043Z,15.30
2019-03-15T10:50:32.632Z,13.10
2019-03-15T10:53:05.742Z,12.20
2019-03-15T10:55:39.214Z,10.98
2019-03-15T10:58:12.266Z,10.30
2019-03-15T11:00:46.521Z,10.98
2019-03-15T11:03:20.299Z,11.75
2019-03-15T11:05:53.225Z,12.30
2019-03-15T11:08:29.661Z,14.50
2019-03-15T11:11:04.749Z,15.00
2019-03-15T11:13:38.639Z,14.33
2019-03-15T11:16:11.328Z,13.88
2019-03-15T11:18:46.854Z,13.70
2019-03-15T11:21:20.496Z,12.90
2019-03-15T11:23:58.992Z,11.73
2019-03-15T11:26:32.921Z,10.70
2019-03-15T11:29:06.390Z,11.95
2019-03-15T11:31:40.865Z,12.28
2019-03-15T11:34:13.548Z,12.40
2019-03-15T11:36:57.679Z,11.95
2019-03-15T11:39:23.219Z,13.32
2019-03-15T11:41:56.478Z,14.10
2019-03-15T11:44:29.564Z,14.87
2019-03-15T11:47:02.955Z,14.98
2019-03-15T11:49:36.667Z,13.55
2019-03-15T11:52:10.471Z,13.25
2019-03-15T11:54:44.976Z,11.63
2019-03-15T11:57:18.967Z,11.95
2019-03-15T11:59:51.632Z,11.12
2019-03-15T12:02:25.537Z,11.18
2019-03-15T12:04:58.758Z,11.30
2019-03-15T12:07:31.775Z,9.75
2019-03-15T12:10:05.614Z,10.18
2019-03-15T12:12:38.826Z,9.95
2019-03-15T12:15:12.387Z,9.55
2019-03-15T12:17:46.274Z,8.55
2019-03-15T12:20:19.746Z,9.33
2019-03-15T12:22:52.779Z,8.38
2019-03-15T12:25:25.726Z,8.10
2019-03-15T12:27:58.739Z,8.25
2019-03-15T12:30:31.430Z,8.55
2019-03-15T12:33:03.982Z,7.50
2019-03-15T12:35:37.931Z,6.60
2019-03-15T12:38:10.969Z,6.62
2019-03-15T12:40:44.798Z,6.28
2019-03-15T12:43:17.774Z,5.87
2019-03-15T12:45:51.292Z,5.87
2019-03-15T12:48:24.363Z,6.03
2019-03-15T12:50:57.518Z,5.90
2019-03-15T12:53:31.498Z,6.70
2019-03-15T12:56:05.232Z,5.15
2019-03-15T12:58:37.844Z,4.95
2019-03-15T13:01:10.533Z,5.53
2019-03-15T13:03:44.025Z,5.78
2019-03-15T13:06:17.109Z,5.20
2019-03-15T13:08:49.682Z,4.53
2019-03-15T13:11:23.068Z,4.40
2019-03-15T13:13:55.958Z,3.30
2019-03-15T13:16:29.561Z,3.95
2019-03-15T13:19:03.214Z,3.70
2019-03-15T13:21:36.372Z,4.28
2019-03-15T13:24:09.351Z,4.12
2019-03-15T13:26:43.048Z,4.85
2019-03-15T13:29:16.885Z,4.70
2019-03-15T13:31:50.383Z,5.85
2019-03-15T13:34:23.369Z,3.05
2019-03-15T13:36:57.287Z,3.30
2019-03-15T13:39:30.617Z,4.10
2019-03-15T13:42:03.383Z,3.50
2019-03-15T13:44:36.986Z,4.85
2019-03-15T13:47:10.433Z,4.47
2019-03-15T13:49:43.865Z,5.37
2019-03-15T13:52:17.184Z,4.20
2019-03-15T13:54:51.478Z,4.40
2019-03-15T13:57:26.410Z,4.67
2019-03-15T13:59:59.525Z,5.20
2019-03-15T14:02:32.744Z,3.85
2019-03-15T14:05:06.398Z,4.20
2019-03-15T14:07:39.994Z,4.80
2019-03-15T14:10:12.851Z,4.17
2019-03-15T14:12:46.496Z,3.20
2019-03-15T14:15:20.191Z,3.02
2019-03-15T14:17:57.464Z,3.00
2019-03-15T14:20:30.277Z,2.17
2019-03-15T14:23:03.643Z,2.60
2019-03-15T14:25:37.606Z,2.90
2019-03-15T14:28:10.601Z,2.70
2019-03-15T14:33:09.313Z,3.20
2019-03-15T14:35:42.367Z,3.02
2019-03-15T14:38:16.305Z,2.00
2019-03-15T14:40:49.081Z,1.90
2019-03-15T14:43:22.603Z,2.33
2019-03-15T14:45:56.644Z,2.30
2019-03-15T14:48:29.638Z,1.98
2019-03-15T14:51:02.750Z,2.60
2019-03-15T14:53:36.074Z,2.67
2019-03-15T14:56:09.680Z,2.10
2019-03-15T14:58:42.736Z,2.30
2019-03-15T15:01:15.701Z,1.82
2019-03-15T15:03:49.213Z,2.58
2019-03-15T15:06:23.487Z,2.00
2019-03-15T15:08:56.624Z,2.80
2019-03-15T15:11:29.995Z,3.50
2019-03-15T15:14:03.961Z,2.62
2019-03-15T15:16:37.276Z,2.25
2019-03-15T15:19:11.101Z,2.62
2019-03-15T15:21:44.348Z,2.33
2019-03-15T15:24:17.707Z,2.10
2019-03-15T15:26:51.149Z,1.87
2019-03-15T15:29:25.100Z,2.42
2019-03-15T15:31:58.520Z,1.80
2019-03-15T15:34:32.088Z,2.40
2019-03-15T15:37:07.039Z,2.20
2019-03-15T15:39:40.418Z,2.12
2019-03-15T15:42:14.044Z,2.05
2019-03-15T15:44:50.704Z,2.02
2019-03-15T15:47:24.115Z,2.50
2019-03-15T15:49:57.611Z,3.25
2019-03-15T15:52:31.091Z,2.08
2019-03-15T15:55:04.406Z,2.40
2019-03-15T15:57:38.172Z,2.52
2019-03-15T16:00:11.940Z,3.77
2019-03-15T16:02:45.735Z,2.20
2019-03-15T16:05:18.851Z,2.40
2019-03-15T16:07:52.474Z,2.00
2019-03-15T16:10:25.418Z,2.35
2019-03-15T16:12:58.920Z,3.42
2019-03-15T16:15:31.117Z,3.52
2019-03-15T16:18:03.783Z,4.40
2019-03-15T16:20:36.459Z,3.45
2019-03-15T16:23:09.418Z,3.92
2019-03-15T16:25:42.598Z,3.33
2019-03-15T16:28:15.886Z,3.85
2019-03-15T16:30:49.082Z,3.83
2019-03-15T16:33:22.313Z,2.95
2019-03-15T16:35:55.778Z,4.35
2019-03-15T16:38:28.475Z,2.87
2019-03-15T16:41:01.727Z,3.10
2019-03-15T16:43:36.639Z,3.70
2019-03-15T16:46:10.428Z,3.35
2019-03-15T16:48:44.219Z,2.85
2019-03-15T16:51:19.847Z,2.37
2019-03-15T16:53:53.435Z,2.30
2019-03-15T16:56:26.515Z,2.27
2019-03-15T16:58:59.214Z,2.83
2019-03-15T17:01:34.919Z,1.90
2019-03-15T17:04:10.231Z,2.05
2019-03-15T17:06:43.553Z,1.70
2019-03-15T17:09:16.762Z,1.98
2019-03-15T17:11:50.290Z,2.47
2019-03-15T17:14:25.900Z,1.57
2019-03-15T17:16:59.658Z,1.80
2019-03-15T17:19:32.291Z,1.50
2019-03-15T17:22:05.206Z,1.45
2019-03-15T17:24:38.743Z,1.50
2019-03-15T17:27:12.382Z,2.10
2019-03-15T17:29:45.345Z,1.87
2019-03-15T17:32:18.931Z,1.75
2019-03-15T17:34:52.502Z,2.55
2019-03-15T17:37:25.893Z,1.42
2019-03-15T17:39:59.361Z,2.20
2019-03-15T17:42:34.649Z,1.57
2019-03-15T17:45:07.568Z,1.37
2019-03-15T17:47:41.258Z,1.85
2019-03-15T17:50:14.339Z,1.60
2019-03-15T17:52:48.521Z,1.40
2019-03-15T17:55:21.694Z,2.40
2019-03-15T17:57:55.118Z,1.30
2019-03-15T18:00:38.287Z,1.42
2019-03-15T18:03:20.595Z,1.10
2019-03-15T18:05:47.284Z,1.85
2019-03-15T18:08:20.571Z,1.55
2019-03-15T18:10:54.570Z,1.10
2019-03-15T18:13:28.309Z,1.47
2019-03-15T18:16:01.700Z,1.47
2019-03-15T18:18:35.609Z,2.08
2019-03-15T18:21:09.016Z,1.25
2019-03-15T18:23:42.228Z,1.17
2019-03-15T18:26:16.237Z,1.60
2019-03-15T18:28:51.323Z,1.50
2019-03-15T18:31:24.345Z,1.27
2019-03-15T18:33:57.601Z,1.77
2019-03-15T18:36:31.509Z,1.50
2019-03-15T18:39:07.711Z,1.42
2019-03-15T18:41:41.105Z,1.60
2019-03-15T18:44:14.811Z,1.47
2019-03-15T18:46:48.615Z,1.77
2019-03-15T18:49:22.587Z,2.17
2019-03-15T18:51:55.311Z,1.70
2019-03-15T18:54:28.016Z,1.42
2019-03-15T18:57:01.772Z,2.10
2019-03-15T18:59:39.852Z,1.65
2019-03-15T19:02:10.431Z,1.50
2019-03-15T19:04:43.306Z,2.22
2019-03-15T19:07:17.279Z,1.70
2019-03-15T19:09:50.986Z,1.85
2019-03-15T19:12:24.285Z,1.50
2019-03-15T19:14:57.639Z,1.27
2019-03-15T19:17:30.288Z,1.95
2019-03-15T19:20:04.343Z,1.30
2019-03-15T19:22:38.146Z,1.70
2019-03-15T19:25:11.596Z,1.50
2019-03-15T19:27:48.267Z,2.37
2019-03-15T19:30:22.959Z,2.60
2019-03-15T19:32:55.765Z,1.92
2019-03-15T19:35:29.663Z,1.50
2019-03-15T19:38:02.770Z,2.15
2019-03-15T19:40:35.590Z,1.52
2019-03-15T19:43:09.162Z,1.75
2019-03-15T19:45:42.258Z,2.42
2019-03-15T19:48:16.302Z,1.62
2019-03-15T19:50:49.599Z,2.67
2019-03-15T19:53:23.792Z,1.92
2019-03-15T19:55:59.088Z,1.85
2019-03-15T19:58:33.014Z,1.70
2019-03-15T20:01:06.543Z,1.55
2019-03-15T20:03:44.228Z,1.40
2019-03-15T20:06:14.668Z,1.90
2019-03-15T20:08:49.002Z,1.75
2019-03-15T20:11:23.195Z,1.95
2019-03-15T20:13:56.393Z,2.27
2019-03-15T20:16:30.300Z,1.12
2019-03-15T20:19:03.581Z,1.98
2019-03-15T20:21:37.744Z,1.50
2019-03-15T20:24:11.731Z,2.70
2019-03-15T20:26:44.580Z,2.65
2019-03-15T20:29:17.883Z,1.75
2019-03-15T20:31:50.582Z,1.72
2019-03-15T20:34:23.867Z,2.08
2019-03-15T20:36:57.828Z,1.82
2019-03-15T20:39:32.501Z,1.50
2019-03-15T20:42:06.126Z,2.75
2019-03-15T20:44:39.430Z,2.52
2019-03-15T20:47:13.066Z,2.15
2019-03-15T20:49:46.200Z,2.20
2019-03-15T20:52:19.791Z,1.52
2019-03-15T20:54:53.214Z,2.12
2019-03-15T20:57:30.253Z,2.27
2019-03-15T21:00:04.580Z,2.00
2019-03-15T21:02:41.210Z,2.22
2019-03-15T21:05:15.211Z,1.50
2019-03-15T21:07:49.379Z,1.45
2019-03-15T21:10:23.180Z,1.72
2019-03-15T21:12:56.915Z,1.60
2019-03-15T21:15:30.179Z,1.77
2019-03-15T21:18:03.708Z,2.08
2019-03-15T21:20:38.729Z,2.15
2019-03-15T21:23:12.406Z,2.50
